HorshamWeather.Com Historical Data
 
Daily Summary for December 20, 2014 Units:  English    Metric   Both
« Previous Day
Next Day »
Daily Weekly Monthly Yearly Custom
  Current: High: Low: Average:
Temperature: 33.7 °F 33.9 °F 30.8 °F 32.1 °F
Dew Point: 23.9 °F 25.1 °F 23.1 °F 24.2 °F
Humidity: 67% 76% 67% 72%
Wind Speed: 2.0mph 5.0mph 1.0mph 2mph
Wind Gust: 4.0mph 9.0mph - -
WindNW - - SSE
Pressure: 30.28 in 30.33 in 30.20 in -
Precipitation: 0.00 in      
Historical Graphs
 
 
Tabular Data for December 20, 2014
Time Temperature Dew Point Pressure Wind Wind Speed Wind Gust Humidity Rainfall Rate (Hourly)
00:02 32.6 °F 23.9 °F 30.21 in NNW 2.0 mph 4.0 mph 70% 0.00 in
00:07 32.6 °F 24.2 °F 30.21 in Calm   4.0 mph 71% 0.00 in
00:13 32.7 °F 24.0 °F 30.21 in North 2.0 mph 8.0 mph 70% 0.00 in
00:18 32.8 °F 24.5 °F 30.21 in NNW 1.0 mph 4.0 mph 71% 0.00 in
00:23 32.8 °F 24.5 °F 30.21 in NNW 3.0 mph 4.0 mph 71% 0.00 in
00:28 32.9 °F 24.5 °F 30.21 in NW 1.0 mph 3.0 mph 71% 0.00 in
00:33 32.9 °F 24.5 °F 30.21 in NNW 1.0 mph 2.0 mph 71% 0.00 in
00:38 32.9 °F 24.5 °F 30.21 in NW 3.0 mph 4.0 mph 71% 0.00 in
00:43 32.9 °F 24.9 °F 30.21 in NNW 2.0 mph 5.0 mph 72% 0.00 in
00:48 33.0 °F 25.0 °F 30.21 in NNW 1.0 mph 3.0 mph 72% 0.00 in
00:53 33.0 °F 24.6 °F 30.21 in NNW 1.0 mph 5.0 mph 71% 0.00 in
00:58 32.9 °F 24.9 °F 30.21 in NNE 1.0 mph 4.0 mph 72% 0.00 in
01:03 32.9 °F 24.9 °F 30.20 in NNE 1.0 mph 5.0 mph 72% 0.00 in
01:08 32.9 °F 24.9 °F 30.21 in NNE 3.0 mph 5.0 mph 72% 0.00 in
01:13 32.9 °F 24.9 °F 30.20 in NNE 5.0 mph 8.0 mph 72% 0.00 in
01:18 32.9 °F 24.9 °F 30.20 in North 3.0 mph 5.0 mph 72% 0.00 in
01:23 32.9 °F 24.9 °F 30.21 in North 5.0 mph 8.0 mph 72% 0.00 in
01:28 32.9 °F 24.9 °F 30.21 in NNW 2.0 mph 8.0 mph 72% 0.00 in
01:33 32.9 °F 24.9 °F 30.21 in North 1.0 mph 5.0 mph 72% 0.00 in
01:38 32.9 °F 24.9 °F 30.22 in NNE 2.0 mph 5.0 mph 72% 0.00 in
01:43 32.8 °F 24.8 °F 30.22 in NNW 3.0 mph 6.0 mph 72% 0.00 in
01:48 32.8 °F 24.8 °F 30.22 in NNE 3.0 mph 7.0 mph 72% 0.00 in
01:53 32.8 °F 25.1 °F 30.22 in North 3.0 mph 3.0 mph 73% 0.00 in
01:58 32.7 °F 24.7 °F 30.22 in Calm   5.0 mph 72% 0.00 in
02:03 32.7 °F 24.7 °F 30.22 in NE 4.0 mph 5.0 mph 72% 0.00 in
02:08 32.7 °F 24.7 °F 30.22 in NNE 4.0 mph 6.0 mph 72% 0.00 in
02:13 32.7 °F 24.7 °F 30.22 in NNW 2.0 mph 6.0 mph 72% 0.00 in
02:18 32.6 °F 24.9 °F 30.23 in NNE 1.0 mph 3.0 mph 73% 0.00 in
02:23 32.6 °F 24.6 °F 30.23 in Calm   5.0 mph 72% 0.00 in
02:28 32.6 °F 24.9 °F 30.23 in North 2.0 mph 3.0 mph 73% 0.00 in
02:33 32.5 °F 24.5 °F 30.23 in NNW 2.0 mph 5.0 mph 72% 0.00 in
02:38 32.5 °F 24.8 °F 30.23 in NE 1.0 mph 4.0 mph 73% 0.00 in
02:43 32.5 °F 24.8 °F 30.24 in NE 4.0 mph 9.0 mph 73% 0.00 in
02:48 32.5 °F 24.5 °F 30.24 in NNW 2.0 mph 6.0 mph 72% 0.00 in
02:53 32.4 °F 24.7 °F 30.24 in NNE 1.0 mph 4.0 mph 73% 0.00 in
02:58 32.4 °F 24.4 °F 30.24 in NNE 2.0 mph 5.0 mph 72% 0.00 in
03:03 32.4 °F 24.7 °F 30.24 in NNE 1.0 mph 2.0 mph 73% 0.00 in
03:08 32.4 °F 24.7 °F 30.24 in NNE 5.0 mph 6.0 mph 73% 0.00 in
03:13 32.4 °F 24.7 °F 30.24 in North 4.0 mph 4.0 mph 73% 0.00 in
03:18 32.3 °F 24.6 °F 30.24 in Calm   3.0 mph 73% 0.00 in
03:23 32.3 °F 24.6 °F 30.24 in NW 2.0 mph 4.0 mph 73% 0.00 in
03:28 32.3 °F 24.6 °F 30.24 in NW 5.0 mph 5.0 mph 73% 0.00 in
03:33 32.3 °F 24.6 °F 30.24 in NE 2.0 mph 4.0 mph 73% 0.00 in
03:38 32.2 °F 24.5 °F 30.24 in NNE 1.0 mph 4.0 mph 73% 0.00 in
03:43 32.2 °F 24.9 °F 30.24 in NNW 3.0 mph 4.0 mph 74% 0.00 in
03:48 32.1 °F 24.8 °F 30.24 in North 1.0 mph 4.0 mph 74% 0.00 in
03:53 32.1 °F 24.4 °F 30.24 in NNE 1.0 mph 4.0 mph 73% 0.00 in
03:58 32.0 °F 24.7 °F 30.25 in NNW 2.0 mph 5.0 mph 74% 0.00 in
04:03 32.0 °F 24.7 °F 30.25 in NNE 1.0 mph 5.0 mph 74% 0.00 in
04:08 31.9 °F 24.6 °F 30.25 in NNE 1.0 mph 3.0 mph 74% 0.00 in
04:13 31.9 °F 24.6 °F 30.25 in North 4.0 mph 5.0 mph 74% 0.00 in
04:18 31.9 °F 24.6 °F 30.25 in NNW 4.0 mph 7.0 mph 74% 0.00 in
04:23 31.8 °F 24.5 °F 30.25 in NNW 2.0 mph 4.0 mph 74% 0.00 in
04:28 31.8 °F 24.5 °F 30.25 in NNE 1.0 mph 3.0 mph 74% 0.00 in
04:33 31.8 °F 24.8 °F 30.26 in NNE 1.0 mph 5.0 mph 75% 0.00 in
04:38 31.8 °F 24.8 °F 30.26 in North 3.0 mph 4.0 mph 75% 0.00 in
04:43 31.7 °F 24.4 °F 30.26 in NW 2.0 mph 4.0 mph 74% 0.00 in
04:48 31.7 °F 24.7 °F 30.26 in NNE 1.0 mph 4.0 mph 75% 0.00 in
04:53 31.7 °F 24.7 °F 30.26 in North 1.0 mph 5.0 mph 75% 0.00 in
04:58 31.7 °F 24.7 °F 30.26 in North 4.0 mph 5.0 mph 75% 0.00 in
05:03 31.6 °F 24.6 °F 30.26 in NNE 3.0 mph 6.0 mph 75% 0.00 in
05:08 31.5 °F 24.5 °F 30.26 in North 2.0 mph 5.0 mph 75% 0.00 in
05:13 31.5 °F 24.5 °F 30.26 in NNE 2.0 mph 2.0 mph 75% 0.00 in
05:18 31.4 °F 24.4 °F 30.26 in North 2.0 mph 4.0 mph 75% 0.00 in
05:23 31.4 °F 24.4 °F 30.26 in NE 1.0 mph 3.0 mph 75% 0.00 in
05:28 31.3 °F 24.3 °F 30.27 in North 1.0 mph 4.0 mph 75% 0.00 in
05:33 31.3 °F 24.3 °F 30.27 in NNE 1.0 mph 4.0 mph 75% 0.00 in
05:38 31.2 °F 24.2 °F 30.27 in North 4.0 mph 5.0 mph 75% 0.00 in
05:43 31.2 °F 24.2 °F 30.27 in NNE 2.0 mph 5.0 mph 75% 0.00 in
05:48 31.2 °F 24.2 °F 30.27 in NNE 1.0 mph 1.0 mph 75% 0.00 in
05:53 31.2 °F 24.5 °F 30.27 in North 1.0 mph 3.0 mph 76% 0.00 in
05:58 31.2 °F 24.5 °F 30.27 in NE 2.0 mph 2.0 mph 76% 0.00 in
06:03 31.2 °F 24.5 °F 30.27 in North 3.0 mph 4.0 mph 76% 0.00 in
06:08 31.1 °F 24.1 °F 30.27 in NNW 3.0 mph 6.0 mph 75% 0.00 in
06:13 31.1 °F 24.1 °F 30.27 in North 3.0 mph 3.0 mph 75% 0.00 in
06:18 31.0 °F 24.0 °F 30.27 in NE 4.0 mph 7.0 mph 75% 0.00 in
06:23 31.0 °F 24.0 °F 30.27 in North 2.0 mph 4.0 mph 75% 0.00 in
06:28 30.9 °F 23.9 °F 30.27 in Calm   3.0 mph 75% 0.00 in
06:34 30.9 °F 23.9 °F 30.27 in NNE 1.0 mph 3.0 mph 75% 0.00 in
06:39 30.9 °F 24.2 °F 30.27 in NNE 1.0 mph 1.0 mph 76% 0.00 in
06:44 30.9 °F 23.9 °F 30.27 in NNE 1.0 mph 4.0 mph 75% 0.00 in
06:49 30.9 °F 23.9 °F 30.27 in NE 1.0 mph 4.0 mph 75% 0.00 in
06:54 30.9 °F 23.9 °F 30.27 in NNE 1.0 mph 5.0 mph 75% 0.00 in
06:59 30.8 °F 23.8 °F 30.27 in NNE 1.0 mph 6.0 mph 75% 0.00 in
07:04 30.8 °F 24.1 °F 30.27 in North 2.0 mph 5.0 mph 76% 0.00 in
07:09 30.8 °F 23.8 °F 30.27 in NNE 1.0 mph 5.0 mph 75% 0.00 in
07:14 30.8 °F 23.8 °F 30.27 in Calm   3.0 mph 75% 0.00 in
07:19 30.8 °F 23.8 °F 30.28 in NE 1.0 mph 4.0 mph 75% 0.00 in
07:24 30.8 °F 23.8 °F 30.28 in NE 1.0 mph 1.0 mph 75% 0.00 in
07:29 30.8 °F 23.8 °F 30.28 in ENE 1.0 mph 2.0 mph 75% 0.00 in
07:34 30.8 °F 23.8 °F 30.29 in ESE 2.0 mph 2.0 mph 75% 0.00 in
07:39 30.8 °F 23.5 °F 30.29 in NE 2.0 mph 3.0 mph 74% 0.00 in
07:44 30.8 °F 23.8 °F 30.29 in NNE 4.0 mph 5.0 mph 75% 0.00 in
07:49 30.8 °F 23.5 °F 30.30 in Calm   3.0 mph 74% 0.00 in
07:54 30.8 °F 23.5 °F 30.29 in ENE 1.0 mph 3.0 mph 74% 0.00 in
07:59 30.9 °F 23.3 °F 30.30 in NNW 3.0 mph 7.0 mph 73% 0.00 in
08:04 30.9 °F 23.3 °F 30.30 in NW 4.0 mph 4.0 mph 73% 0.00 in
08:09 31.0 °F 23.4 °F 30.30 in NW 2.0 mph 3.0 mph 73% 0.00 in
08:14 31.0 °F 23.4 °F 30.30 in NNW 3.0 mph 3.0 mph 73% 0.00 in
08:19 31.0 °F 23.4 °F 30.31 in North 1.0 mph 3.0 mph 73% 0.00 in
08:24 31.1 °F 23.5 °F 30.31 in North 1.0 mph 3.0 mph 73% 0.00 in
08:29 31.1 °F 23.5 °F 30.32 in North 1.0 mph 2.0 mph 73% 0.00 in
08:34 31.1 °F 23.5 °F 30.32 in Calm   2.0 mph 73% 0.00 in
08:39 31.3 °F 23.3 °F 30.32 in NE 1.0 mph 3.0 mph 72% 0.00 in
08:44 31.3 °F 23.3 °F 30.32 in NE 1.0 mph 3.0 mph 72% 0.00 in
08:49 31.4 °F 23.4 °F 30.32 in Calm   2.0 mph 72% 0.00 in
08:54 31.4 °F 23.1 °F 30.32 in North 1.0 mph 2.0 mph 71% 0.00 in
08:59 31.4 °F 23.4 °F 30.32 in NE 1.0 mph 3.0 mph 72% 0.00 in
09:04 31.4 °F 23.4 °F 30.32 in NNE 1.0 mph 2.0 mph 72% 0.00 in
09:09 31.4 °F 23.4 °F 30.32 in NNE 2.0 mph 4.0 mph 72% 0.00 in
09:14 31.4 °F 23.4 °F 30.32 in NNE 2.0 mph 3.0 mph 72% 0.00 in
09:19 31.5 °F 23.2 °F 30.32 in Calm   3.0 mph 71% 0.00 in
09:24 31.6 °F 23.3 °F 30.32 in Calm   5.0 mph 71% 0.00 in
09:29 31.7 °F 23.4 °F 30.32 in NW 3.0 mph 4.0 mph 71% 0.00 in
09:34 31.8 °F 23.8 °F 30.32 in NE 3.0 mph 4.0 mph 72% 0.00 in
09:39 31.8 °F 23.5 °F 30.32 in Calm   3.0 mph 71% 0.00 in
09:44 31.8 °F 23.5 °F 30.32 in Calm   2.0 mph 71% 0.00 in
09:49 31.9 °F 23.6 °F 30.32 in North 2.0 mph 3.0 mph 71% 0.00 in
09:54 32.1 °F 23.8 °F 30.33 in NNE 2.0 mph 4.0 mph 71% 0.00 in
09:59 32.3 °F 23.6 °F 30.32 in NNE 1.0 mph 5.0 mph 70% 0.00 in
10:04 32.4 °F 24.1 °F 30.33 in NNE 1.0 mph 3.0 mph 71% 0.00 in
10:09 32.5 °F 23.8 °F 30.32 in Calm   3.0 mph 70% 0.00 in
10:14 32.7 °F 24.0 °F 30.32 in NE 1.0 mph 3.0 mph 70% 0.00 in
10:19 32.7 °F 23.7 °F 30.32 in NNE 3.0 mph 5.0 mph 69% 0.00 in
10:24 32.7 °F 23.7 °F 30.32 in North 1.0 mph 3.0 mph 69% 0.00 in
10:29 32.8 °F 23.4 °F 30.32 in North 3.0 mph 4.0 mph 68% 0.00 in
10:34 32.8 °F 23.8 °F 30.33 in NE 1.0 mph 4.0 mph 69% 0.00 in
10:39 32.8 °F 23.8 °F 30.33 in NNE 3.0 mph 4.0 mph 69% 0.00 in
10:44 32.8 °F 23.4 °F 30.33 in Calm   3.0 mph 68% 0.00 in
10:49 32.8 °F 23.8 °F 30.32 in NNE 1.0 mph 3.0 mph 69% 0.00 in
10:54 32.8 °F 23.8 °F 30.32 in Calm   3.0 mph 69% 0.00 in
10:59 32.9 °F 23.5 °F 30.32 in NE 2.0 mph 4.0 mph 68% 0.00 in
11:04 33.0 °F 24.0 °F 30.31 in North 2.0 mph 3.0 mph 69% 0.00 in
11:09 33.1 °F 24.0 °F 30.31 in North 3.0 mph 4.0 mph 69% 0.00 in
11:14 33.2 °F 24.1 °F 30.31 in NNW 3.0 mph 5.0 mph 69% 0.00 in
11:19 33.1 °F 23.7 °F 30.31 in NNE 2.0 mph 4.0 mph 68% 0.00 in
11:24 33.1 °F 23.7 °F 30.30 in WNW 3.0 mph 6.0 mph 68% 0.00 in
11:29 33.2 °F 23.8 °F 30.30 in ENE 1.0 mph 4.0 mph 68% 0.00 in
11:34 33.4 °F 24.3 °F 30.29 in NE 4.0 mph 4.0 mph 69% 0.00 in
11:39 33.5 °F 23.7 °F 30.29 in North 3.0 mph 5.0 mph 67% 0.00 in
11:44 33.6 °F 24.2 °F 30.29 in NNE 1.0 mph 4.0 mph 68% 0.00 in
11:49 33.9 °F 24.1 °F 30.28 in North 3.0 mph 5.0 mph 67% 0.00 in
11:54 33.8 °F 24.4 °F 30.28 in SE 3.0 mph 6.0 mph 68% 0.00 in
11:59 33.5 °F 23.7 °F 30.28 in NNE 1.0 mph 5.0 mph 67% 0.00 in
12:04 33.4 °F 24.0 °F 30.28 in NE 1.0 mph 5.0 mph 68% 0.00 in
12:09 33.4 °F 23.6 °F 30.28 in NNW 1.0 mph 3.0 mph 67% 0.00 in
12:14 33.4 °F 23.6 °F 30.28 in NNE 2.0 mph 4.0 mph 67% 0.00 in
12:19 33.4 °F 24.0 °F 30.28 in Calm   3.0 mph 68% 0.00 in
12:24 33.6 °F 24.9 °F 30.28 in ESE 3.0 mph 4.0 mph 70% 0.00 in
12:29 33.5 °F 24.4 °F 30.28 in NE 1.0 mph 4.0 mph 69% 0.00 in
12:34 33.5 °F 24.1 °F 30.28 in NNE 1.0 mph 4.0 mph 68% 0.00 in
12:39 33.6 °F 23.8 °F 30.28 in NNW 2.0 mph 3.0 mph 67% 0.00 in
12:44 33.7 °F 23.9 °F 30.28 in WNW 1.0 mph 3.0 mph 67% 0.00 in
12:49 33.7 °F 23.9 °F 30.28 in NW 2.0 mph 4.0 mph 67% 0.00 in
HorshamWeather.Com
Compliments of Weather Underground